Golden Girl — WDH7844 — position and weather

sailwx.info

Track history (hours):
 
Tides and Currents Weather Stations Pressure Air Temp Water Temp Dewpoint Dewpoint Depression Visibility Wind Speed Wind Dir Waves Ship Positions

Golden Girl

Owner: Jim and David Enterprises, LLC, Fort Lauderdale, FL. More information available from US FCC via Universal Licensing System and Coast Guard Vessel Documentation Center.

Last reported at 2017-Dec-03 16:29 UTC. Time now 2017-Dec-11 01:48 UTC.
Position N 27°02' W 080°06'.

Length 28 m.

Type: Pleasure craft. MMSI: 367652170.

Date/timePositionNaut miles runAvg speedWind from/ knotsBaromVisibWave heightAir tempDewpointWater temp
2017-Dec-03 16:29N 27°02' W 080°06'4 7.8
2017-Dec-03 16:00N 26°58' W 080°05'3 5.9
2017-Dec-03 15:31N 26°55' W 080°05'4 2.5
2017-Dec-03 13:46N 26°51' W 080°04'0 0.0
2017-Dec-03 13:27N 26°51' W 080°04'0 0.0
2017-Dec-03 12:49N 26°51' W 080°04'0 0.0
2017-Dec-03 12:27N 26°51' W 080°04'0 0.0
2017-Dec-03 11:57N 26°51' W 080°04'0 0.0
2017-Dec-03 11:31N 26°51' W 080°04'0 0.0
2017-Dec-03 10:58N 26°51' W 080°04'0 0.0
2017-Dec-03 10:30N 26°51' W 080°04'0 0.0
2017-Dec-03 09:49N 26°51' W 080°04'0 0.0
2017-Dec-03 09:31N 26°51' W 080°04'0 0.0
2017-Dec-03 09:01N 26°51' W 080°04'0 0.0
2017-Dec-03 08:24N 26°51' W 080°04'0 0.0
2017-Dec-03 08:01N 26°51' W 080°04'0 0.0
2017-Dec-03 07:31N 26°51' W 080°04'0 0.0
2017-Dec-03 06:57N 26°51' W 080°04'0 0.0
2017-Dec-03 06:28N 26°51' W 080°04'0 0.0
2017-Dec-03 05:58N 26°51' W 080°04'0 0.0
2017-Dec-03 05:28N 26°51' W 080°04'0 0.0
2017-Dec-03 04:52N 26°51' W 080°04'0 0.0
2017-Dec-03 04:27N 26°51' W 080°04'0 0.0
2017-Dec-02 22:06N 26°51' W 080°04'0 0.1
2017-Dec-02 22:01N 26°51' W 080°04'0 0.0
2017-Dec-02 21:28N 26°51' W 080°04'0 0.7
2017-Dec-02 20:58N 26°50' W 080°04'3 7.1
2017-Dec-02 20:30N 26°47' W 080°03'3 5.5
2017-Dec-02 20:01N 26°45' W 080°03'2 3.5
2017-Dec-02 19:28N 26°43' W 080°03'0 0.0
2017-Dec-02 18:55N 26°43' W 080°03'0 0.0
2017-Dec-02 18:28N 26°43' W 080°03'0 0.0
2017-Dec-02 17:58N 26°43' W 080°03'0 0.0
2017-Dec-02 17:25N 26°43' W 080°03'0 0.0
2017-Dec-02 16:52N 26°43' W 080°03'0 0.0
2017-Dec-02 16:19N 26°43' W 080°03'0 0.0
2017-Dec-02 15:58N 26°43' W 080°03'0 0.0
2017-Dec-02 15:07N 26°43' W 080°03'0 0.0
2017-Dec-02 14:58N 26°43' W 080°03'0 0.0
2017-Dec-02 14:19N 26°43' W 080°03'0 0.0
2017-Dec-02 13:58N 26°43' W 080°03'0 0.0
2017-Dec-02 13:22N 26°43' W 080°03'0 0.0
2017-Dec-02 12:58N 26°43' W 080°03'0 0.0
2017-Dec-02 12:28N 26°43' W 080°03'0 0.0
2017-Dec-02 11:55N 26°43' W 080°03'0 0.0
2017-Dec-02 11:28N 26°43' W 080°03'0 0.0
2017-Dec-02 10:49N 26°43' W 080°03'0 0.0
2017-Dec-02 10:28N 26°43' W 080°03'0 0.0
2017-Dec-02 09:58N 26°43' W 080°03'0 0.0
2017-Dec-02 09:28N 26°43' W 080°03'0 0.0
2017-Dec-02 08:58N 26°43' W 080°03'0 0.0
2017-Dec-02 08:28N 26°43' W 080°03'0 0.0
2017-Dec-02 07:58N 26°43' W 080°03'0 0.0
2017-Dec-02 07:25N 26°43' W 080°03'0 0.0
2017-Dec-02 06:55N 26°43' W 080°03'0 0.0
2017-Dec-02 06:28N 26°43' W 080°03'0 0.0
2017-Dec-02 05:58N 26°43' W 080°03'0 0.0
2017-Dec-02 05:25N 26°43' W 080°03'0 0.0
2017-Dec-02 04:58N 26°43' W 080°03'0 0.0
2017-Dec-02 04:28N 26°43' W 080°03'0 0.0
2017-Dec-02 03:55N 26°43' W 080°03'0 0.0
2017-Dec-02 03:22N 26°43' W 080°03'0 0.0
2017-Dec-02 02:55N 26°43' W 080°03'0 0.0
2017-Dec-02 02:19N 26°43' W 080°03'0 0.0
2017-Dec-02 01:58N 26°43' W 080°03'0 0.0
2017-Dec-02 01:28N 26°43' W 080°03'0 0.0
2017-Dec-02 00:52N 26°43' W 080°03'0 0.0
2017-Dec-02 00:10N 26°43' W 080°03'0 0.0
2017-Dec-01 23:52N 26°43' W 080°03'0 0.0
2017-Dec-01 23:28N 26°43' W 080°03'0 0.0
2017-Dec-01 22:58N 26°43' W 080°03'0 0.0
2017-Dec-01 22:25N 26°43' W 080°03'0 0.0
2017-Dec-01 21:49N 26°43' W 080°03'0 0.0
2017-Dec-01 21:19N 26°43' W 080°03'0 0.0
2017-Dec-01 20:31N 26°43' W 080°03'0 0.0
2017-Dec-01 20:28N 26°43' W 080°03'0 0.0
2017-Dec-01 19:55N 26°43' W 080°03'1 1.8
2017-Dec-01 19:30N 26°42' W 080°03'4 7.2
2017-Dec-01 18:55N 26°38' W 080°03'19 0.8
2017-Nov-30 17:24N 26°19' W 080°05'3 6.6
2017-Nov-30 16:57N 26°16' W 080°05'3 4.4
2017-Nov-30 16:13N 26°13' W 080°06'1 5.5
2017-Nov-30 15:59N 26°11' W 080°06'3 6.5
2017-Nov-30 15:30N 26°08' W 080°07'1 0.7
2017-Nov-30 13:31N 26°07' W 080°06'0 0.0
2017-Nov-30 13:19N 26°07' W 080°06'0 0.0
2017-Nov-30 11:18N 26°07' W 080°06'0 0.0
2017-Nov-30 11:00N 26°07' W 080°06'0 0.0
2017-Nov-30 10:30N 26°07' W 080°06'0 0.0
2017-Nov-30 10:00N 26°07' W 080°06'0 0.0
2017-Nov-30 09:30N 26°07' W 080°06'0 0.0
2017-Nov-30 08:57N 26°07' W 080°06'0 0.0
2017-Nov-30 08:24N 26°07' W 080°06'0 0.0
2017-Nov-30 07:54N 26°07' W 080°06'0 0.0
2017-Nov-30 07:27N 26°07' W 080°06'0 0.0
2017-Nov-30 06:57N 26°07' W 080°06'0 0.0
2017-Nov-30 06:27N 26°07' W 080°06'0 0.0
2017-Nov-30 05:57N 26°07' W 080°06'0 0.0
2017-Nov-30 05:27N 26°07' W 080°06'0 0.0
2017-Nov-30 04:57N 26°07' W 080°06'0 0.0
2017-Nov-30 04:27N 26°07' W 080°06'0 0.0
2017-Nov-30 03:23N 26°07' W 080°06'0 0.0
2017-Nov-30 02:53N 26°07' W 080°06'0 0.0
2017-Nov-30 02:20N 26°07' W 080°06'0 0.0
2017-Nov-30 01:53N 26°07' W 080°06'0 0.0
2017-Nov-30 01:23N 26°07' W 080°06'0 0.0
2017-Nov-30 00:50N 26°07' W 080°06'0 0.0
2017-Nov-30 00:23N 26°07' W 080°06'0 0.0
2017-Nov-29 23:53N 26°07' W 080°06'0 0.0
2017-Nov-29 23:20N 26°07' W 080°06'0 0.0
2017-Nov-29 22:50N 26°07' W 080°06'0 0.0
2017-Nov-29 22:20N 26°07' W 080°06'0 0.0
2017-Nov-29 21:50N 26°07' W 080°06'0 0.0
2017-Nov-29 21:20N 26°07' W 080°06'0 0.0
2017-Nov-29 20:59N 26°07' W 080°06'0 0.0
2017-Nov-29 20:29N 26°07' W 080°06'0 0.0
2017-Nov-29 19:50N 26°07' W 080°06'515.6
2017-Nov-29 19:29N 26°12' W 080°06'510.9
2017-Nov-29 18:59N 26°07' W 080°06'0 0.0
2017-Nov-29 18:29N 26°07' W 080°06'0 0.0
2017-Nov-29 17:55N 26°07' W 080°06'0 0.0
2017-Nov-29 17:28N 26°07' W 080°06'0 0.0
2017-Nov-29 16:55N 26°07' W 080°06'1 2.8
2017-Nov-29 16:25N 26°06' W 080°07'3 5.3
2017-Nov-29 15:56N 26°03' W 080°07'3 6.2
2017-Nov-29 15:26N 25°60' W 080°07'2 5.4
2017-Nov-29 15:00N 25°58' W 080°08'0 0.0
2017-Nov-29 14:18N 25°58' W 080°08'0 0.0
2017-Nov-29 14:00N 25°58' W 080°08'0 0.0
2017-Nov-29 13:30N 25°58' W 080°08'0 0.0
2017-Nov-29 13:00N 25°58' W 080°08'0 0.0
2017-Nov-29 12:30N 25°58' W 080°08'0 0.0
2017-Nov-29 11:51N 25°58' W 080°08'0 0.0
2017-Nov-29 11:21N 25°58' W 080°08'0 0.0
2017-Nov-29 10:54N 25°58' W 080°08'0 0.0
2017-Nov-29 10:24N 25°58' W 080°08'0 0.0
2017-Nov-29 09:54N 25°58' W 080°08'0 0.0
2017-Nov-29 09:24N 25°58' W 080°08'0 0.0
2017-Nov-29 08:54N 25°58' W 080°08'0 0.0
2017-Nov-29 08:24N 25°58' W 080°08'0 0.0
2017-Nov-29 07:54N 25°58' W 080°08'0 0.0
2017-Nov-29 07:27N 25°58' W 080°08'0 0.0
2017-Nov-29 06:59N 25°58' W 080°08'0 0.0
2017-Nov-29 06:29N 25°58' W 080°08'0 0.0
2017-Nov-29 05:44N 25°58' W 080°08'0 0.0
2017-Nov-29 05:17N 25°58' W 080°08'0 0.0
2017-Nov-29 04:59N 25°58' W 080°08'0 0.0
2017-Nov-29 04:14N 25°58' W 080°08'0 0.0
2017-Nov-29 03:59N 25°58' W 080°08'0 0.0
2017-Nov-29 03:29N 25°58' W 080°08'0 0.0
2017-Nov-29 02:50N 25°58' W 080°08'0 0.0
2017-Nov-29 02:20N 25°58' W 080°08'0 0.0
2017-Nov-29 01:50N 25°58' W 080°08'0 0.0
2017-Nov-29 01:23N 25°58' W 080°08'0 0.0
2017-Nov-29 00:50N 25°58' W 080°08'0 0.0
2017-Nov-29 00:23N 25°58' W 080°08'0 0.0
2017-Nov-28 23:53N 25°58' W 080°08'0 0.0
2017-Nov-28 23:23N 25°58' W 080°08'0 0.0
2017-Nov-28 22:56N 25°58' W 080°08'0 0.0
2017-Nov-28 22:26N 25°58' W 080°08'0 0.0
2017-Nov-28 21:56N 25°58' W 080°08'0 0.0
2017-Nov-28 21:26N 25°58' W 080°08'0 0.0
2017-Nov-28 20:56N 25°58' W 080°08'0 0.0
2017-Nov-28 20:23N 25°58' W 080°08'0 0.0
2017-Nov-28 19:56N 25°58' W 080°08'0 0.0
2017-Nov-28 19:29N 25°58' W 080°08'0 0.0
2017-Nov-28 18:56N 25°58' W 080°08'0 0.0
2017-Nov-28 18:29N 25°58' W 080°08'0 0.0
2017-Nov-28 17:59N 25°58' W 080°08'0 0.7
2017-Nov-28 17:26N 25°57' W 080°08'3 6.4
2017-Nov-28 17:00N 25°54' W 080°08'2 3.2
2017-Nov-28 16:31N 25°53' W 080°09'3 6.8
2017-Nov-28 16:00N 25°50' W 080°10'3 2.7
2017-Nov-28 15:00N 25°48' W 080°09'0 0.1
2017-Nov-28 14:31N 25°48' W 080°09'0 0.0
2017-Nov-28 13:58N 25°48' W 080°09'0 0.0
2017-Nov-28 13:31N 25°48' W 080°09'0 0.0
2017-Nov-28 12:58N 25°48' W 080°09'0 0.0
2017-Nov-28 12:28N 25°48' W 080°09'0 0.0
2017-Nov-28 11:58N 25°48' W 080°09'0 0.0
2017-Nov-28 11:28N 25°48' W 080°09'0 0.0
2017-Nov-28 10:55N 25°48' W 080°09'0 0.0
2017-Nov-28 10:28N 25°48' W 080°09'0 0.0
2017-Nov-28 09:55N 25°48' W 080°09'0 0.0
2017-Nov-28 09:28N 25°48' W 080°09'0 0.0
2017-Nov-28 09:01N 25°48' W 080°09'0 0.0
2017-Nov-28 08:31N 25°48' W 080°09'0 0.0
2017-Nov-28 07:49N 25°48' W 080°09'0 0.0
2017-Nov-28 07:31N 25°48' W 080°09'0 0.0
2017-Nov-28 06:58N 25°48' W 080°09'0 0.0
2017-Nov-28 06:31N 25°48' W 080°09'0 0.0
2017-Nov-28 05:55N 25°48' W 080°09'0 0.0
2017-Nov-28 05:25N 25°48' W 080°09'0 0.0
2017-Nov-28 04:31N 25°48' W 080°09'0 0.0
2017-Nov-28 03:58N 25°48' W 080°09'0 0.0
2017-Nov-28 03:28N 25°48' W 080°09'0 0.0
2017-Nov-28 03:00N 25°48' W 080°09'0 0.0
2017-Nov-28 02:30N 25°48' W 080°09'0 0.0
2017-Nov-28 02:00N 25°48' W 080°09'0 0.0
2017-Nov-28 01:30N 25°48' W 080°09'0 0.0
2017-Nov-28 01:00N 25°48' W 080°09'0 0.0
2017-Nov-28 00:30N 25°48' W 080°09'0 0.0
2017-Nov-28 00:00N 25°48' W 080°09'0 0.0
2017-Nov-27 23:27N 25°48' W 080°09'0 0.0
2017-Nov-27 23:00N 25°48' W 080°09'0 0.0
2017-Nov-27 22:30N 25°48' W 080°09'0 0.0
2017-Nov-27 21:57N 25°48' W 080°09'0 0.0
2017-Nov-27 21:30N 25°48' W 080°09'0 0.0
2017-Nov-27 20:58N 25°48' W 080°09'0 0.0
2017-Nov-27 20:31N 25°48' W 080°09'0 0.0
2017-Nov-27 20:01N 25°48' W 080°09'0 0.0
2017-Nov-27 19:31N 25°48' W 080°09'0 0.0
2017-Nov-27 19:01N 25°48' W 080°09'2 4.1
2017-Nov-27 18:30N 25°47' W 080°11'4 8.4
2017-Nov-27 18:00N 25°43' W 080°11'4 7.9
2017-Nov-27 17:29N 25°39' W 080°09'4 8.8
2017-Nov-27 17:00N 25°35' W 080°07'0 0.0
2017-Nov-26 16:10N 25°35' W 080°07'211.2
2017-Nov-26 16:00N 25°37' W 080°07'511.1
2017-Nov-26 15:30N 25°42' W 080°07'4 7.7
2017-Nov-26 15:00N 25°46' W 080°08'0 0.2
2017-Nov-26 14:22N 25°46' W 080°08'0 0.0
2017-Nov-26 13:58N 25°46' W 080°08'0 0.0
2017-Nov-26 13:28N 25°46' W 080°08'0 0.0
2017-Nov-26 12:52N 25°46' W 080°08'0 0.0
2017-Nov-26 12:28N 25°46' W 080°08'0 0.0
2017-Nov-26 11:52N 25°46' W 080°08'0 0.0
2017-Nov-26 11:28N 25°46' W 080°08'0 0.0
2017-Nov-26 10:58N 25°46' W 080°08'0 0.0
2017-Nov-26 10:25N 25°46' W 080°08'0 0.0
2017-Nov-26 09:58N 25°46' W 080°08'0 0.0
2017-Nov-26 09:22N 25°46' W 080°08'0 0.0
2017-Nov-26 08:58N 25°46' W 080°08'0 0.0
2017-Nov-26 08:22N 25°46' W 080°08'0 0.0
2017-Nov-26 07:58N 25°46' W 080°08'0 0.0
2017-Nov-26 07:28N 25°46' W 080°08'0 0.0
2017-Nov-26 06:55N 25°46' W 080°08'0 0.0
2017-Nov-26 06:28N 25°46' W 080°08'0 0.0
2017-Nov-26 05:58N 25°46' W 080°08'0 0.0
2017-Nov-26 05:28N 25°46' W 080°08'0 0.0
2017-Nov-26 04:58N 25°46' W 080°08'0 0.0
2017-Nov-26 04:25N 25°46' W 080°08'0 0.0
2017-Nov-26 03:58N 25°46' W 080°08'0 0.0
2017-Nov-26 03:28N 25°46' W 080°08'0 0.0
2017-Nov-26 02:58N 25°46' W 080°08'0 0.0
2017-Nov-26 02:28N 25°46' W 080°08'0 0.0
2017-Nov-26 01:58N 25°46' W 080°08'0 0.0
2017-Nov-26 01:25N 25°46' W 080°08'0 0.0
2017-Nov-26 00:58N 25°46' W 080°08'0 0.0
2017-Nov-26 00:28N 25°46' W 080°08'0 0.0
2017-Nov-25 23:52N 25°46' W 080°08'0 0.0
2017-Nov-25 23:28N 25°46' W 080°08'0 0.0
2017-Nov-25 22:55N 25°46' W 080°08'0 0.0
2017-Nov-25 22:28N 25°46' W 080°08'0 0.0
2017-Nov-25 21:52N 25°46' W 080°08'0 0.0
2017-Nov-25 21:28N 25°46' W 080°08'0 0.0
2017-Nov-25 20:55N 25°46' W 080°08'1 1.4
2017-Nov-25 20:30N 25°46' W 080°09'3 5.0
2017-Nov-25 20:00N 25°48' W 080°11'4 7.8
2017-Nov-25 19:29N 25°52' W 080°10'3 6.4
2017-Nov-25 18:59N 25°54' W 080°08'4 6.8
2017-Nov-25 18:28N 25°58' W 080°07'3 6.4
2017-Nov-25 18:00N 26°01' W 080°07'2 4.7
2017-Nov-25 17:29N 26°03' W 080°07'2 3.6
2017-Nov-25 17:00N 26°05' W 080°07'3 4.5
2017-Nov-25 16:25N 26°07' W 080°09'1 2.8
2017-Nov-25 16:00N 26°06' W 080°10'1 1.8
2017-Nov-25 15:30N 26°07' W 080°09'2 3.2
2017-Nov-25 14:56N 26°06' W 080°07'0 0.0
2017-Nov-25 11:22N 26°06' W 080°07'0 0.0
2017-Nov-25 10:58N 26°06' W 080°07'0 0.0
2017-Nov-25 10:28N 26°06' W 080°07'0 0.0
2017-Nov-25 09:10N 26°06' W 080°07'0 0.0
2017-Nov-25 08:52N 26°06' W 080°07'0 0.0
2017-Nov-25 08:22N 26°06' W 080°07'0 0.0
2017-Nov-25 07:40N 26°06' W 080°07'0 0.0
2017-Nov-25 07:05N 26°06' W 080°07'0 0.0
2017-Nov-25 05:44N 26°06' W 080°07'0 0.0
2017-Nov-25 05:14N 26°06' W 080°07'0 0.0
2017-Nov-25 04:32N 26°06' W 080°07'0 0.0
2017-Nov-25 04:14N 26°06' W 080°07'0 0.0
2017-Nov-25 03:58N 26°06' W 080°07'0 0.0
2017-Nov-25 03:25N 26°06' W 080°07'0 0.0
2017-Nov-25 02:55N 26°06' W 080°07'0 0.0
2017-Nov-24 23:13N 26°06' W 080°07'0 0.0
2017-Nov-24 19:37N 26°06' W 080°07'0 0.0
2017-Nov-24 18:32N 26°06' W 080°07'0 0.1
2017-Nov-24 18:07N 26°06' W 080°07'0 2.3
2017-Nov-24 17:59N 26°06' W 080°07'2 4.3
2017-Nov-24 17:30N 26°08' W 080°06'3 5.2
2017-Nov-24 16:55N 26°11' W 080°06'3 6.1
2017-Nov-24 16:29N 26°14' W 080°06'2 4.5
2017-Nov-24 15:58N 26°16' W 080°05'3 5.5
2017-Nov-24 15:28N 26°19' W 080°05'2 3.0
2017-Nov-24 14:58N 26°20' W 080°05'0 0.0
2017-Nov-23 19:06N 26°21' W 080°05'15 5.6
2017-Nov-23 16:31N 26°35' W 080°03'0 0.8
2017-Nov-23 16:30N 26°35' W 080°03'  
Track history (hours):
 
Tides and Currents Weather Stations Pressure Air Temp Water Temp Dewpoint Dewpoint Depression Visibility Wind Speed Wind Dir Waves Ship Positions

Golden Girl

Owner: Jim and David Enterprises, LLC, Fort Lauderdale, FL. More information available from US FCC via Universal Licensing System and Coast Guard Vessel Documentation Center.

Last reported at 2017-Dec-03 16:29 UTC. Time now 2017-Dec-11 01:48 UTC.
Position N 27°02' W 080°06'.

Length 28 m.

Type: Pleasure craft. MMSI: 367652170.

Date/timePositionNaut miles runAvg speedWind from/ knotsBaromVisibWave heightAir tempDewpointWater temp
2017-Dec-03 16:29N 27°02' W 080°06'4 7.8
2017-Dec-03 16:00N 26°58' W 080°05'3 5.9
2017-Dec-03 15:31N 26°55' W 080°05'4 2.5
2017-Dec-03 13:46N 26°51' W 080°04'0 0.0
2017-Dec-03 13:27N 26°51' W 080°04'0 0.0
2017-Dec-03 12:49N 26°51' W 080°04'0 0.0
2017-Dec-03 12:27N 26°51' W 080°04'0 0.0
2017-Dec-03 11:57N 26°51' W 080°04'0 0.0
2017-Dec-03 11:31N 26°51' W 080°04'0 0.0
2017-Dec-03 10:58N 26°51' W 080°04'0 0.0
2017-Dec-03 10:30N 26°51' W 080°04'0 0.0
2017-Dec-03 09:49N 26°51' W 080°04'0 0.0
2017-Dec-03 09:31N 26°51' W 080°04'0 0.0
2017-Dec-03 09:01N 26°51' W 080°04'0 0.0
2017-Dec-03 08:24N 26°51' W 080°04'0 0.0
2017-Dec-03 08:01N 26°51' W 080°04'0 0.0
2017-Dec-03 07:31N 26°51' W 080°04'0 0.0
2017-Dec-03 06:57N 26°51' W 080°04'0 0.0
2017-Dec-03 06:28N 26°51' W 080°04'0 0.0
2017-Dec-03 05:58N 26°51' W 080°04'0 0.0
2017-Dec-03 05:28N 26°51' W 080°04'0 0.0
2017-Dec-03 04:52N 26°51' W 080°04'0 0.0
2017-Dec-03 04:27N 26°51' W 080°04'0 0.0
2017-Dec-02 22:06N 26°51' W 080°04'0 0.1
2017-Dec-02 22:01N 26°51' W 080°04'0 0.0
2017-Dec-02 21:28N 26°51' W 080°04'0 0.7
2017-Dec-02 20:58N 26°50' W 080°04'3 7.1
2017-Dec-02 20:30N 26°47' W 080°03'3 5.5
2017-Dec-02 20:01N 26°45' W 080°03'2 3.5
2017-Dec-02 19:28N 26°43' W 080°03'0 0.0
2017-Dec-02 18:55N 26°43' W 080°03'0 0.0
2017-Dec-02 18:28N 26°43' W 080°03'0 0.0
2017-Dec-02 17:58N 26°43' W 080°03'0 0.0
2017-Dec-02 17:25N 26°43' W 080°03'0 0.0
2017-Dec-02 16:52N 26°43' W 080°03'0 0.0
2017-Dec-02 16:19N 26°43' W 080°03'0 0.0
2017-Dec-02 15:58N 26°43' W 080°03'0 0.0
2017-Dec-02 15:07N 26°43' W 080°03'0 0.0
2017-Dec-02 14:58N 26°43' W 080°03'0 0.0
2017-Dec-02 14:19N 26°43' W 080°03'0 0.0
2017-Dec-02 13:58N 26°43' W 080°03'0 0.0
2017-Dec-02 13:22N 26°43' W 080°03'0 0.0
2017-Dec-02 12:58N 26°43' W 080°03'0 0.0
2017-Dec-02 12:28N 26°43' W 080°03'0 0.0
2017-Dec-02 11:55N 26°43' W 080°03'0 0.0
2017-Dec-02 11:28N 26°43' W 080°03'0 0.0
2017-Dec-02 10:49N 26°43' W 080°03'0 0.0
2017-Dec-02 10:28N 26°43' W 080°03'0 0.0
2017-Dec-02 09:58N 26°43' W 080°03'0 0.0
2017-Dec-02 09:28N 26°43' W 080°03'0 0.0
2017-Dec-02 08:58N 26°43' W 080°03'0 0.0
2017-Dec-02 08:28N 26°43' W 080°03'0 0.0
2017-Dec-02 07:58N 26°43' W 080°03'0 0.0
2017-Dec-02 07:25N 26°43' W 080°03'0 0.0
2017-Dec-02 06:55N 26°43' W 080°03'0 0.0
2017-Dec-02 06:28N 26°43' W 080°03'0 0.0
2017-Dec-02 05:58N 26°43' W 080°03'0 0.0
2017-Dec-02 05:25N 26°43' W 080°03'0 0.0
2017-Dec-02 04:58N 26°43' W 080°03'0 0.0
2017-Dec-02 04:28N 26°43' W 080°03'0 0.0
2017-Dec-02 03:55N 26°43' W 080°03'0 0.0
2017-Dec-02 03:22N 26°43' W 080°03'0 0.0
2017-Dec-02 02:55N 26°43' W 080°03'0 0.0
2017-Dec-02 02:19N 26°43' W 080°03'0 0.0
2017-Dec-02 01:58N 26°43' W 080°03'0 0.0
2017-Dec-02 01:28N 26°43' W 080°03'0 0.0
2017-Dec-02 00:52N 26°43' W 080°03'0 0.0
2017-Dec-02 00:10N 26°43' W 080°03'0 0.0
2017-Dec-01 23:52N 26°43' W 080°03'0 0.0
2017-Dec-01 23:28N 26°43' W 080°03'0 0.0
2017-Dec-01 22:58N 26°43' W 080°03'0 0.0
2017-Dec-01 22:25N 26°43' W 080°03'0 0.0
2017-Dec-01 21:49N 26°43' W 080°03'0 0.0
2017-Dec-01 21:19N 26°43' W 080°03'0 0.0
2017-Dec-01 20:31N 26°43' W 080°03'0 0.0
2017-Dec-01 20:28N 26°43' W 080°03'0 0.0
2017-Dec-01 19:55N 26°43' W 080°03'1 1.8
2017-Dec-01 19:30N 26°42' W 080°03'4 7.2
2017-Dec-01 18:55N 26°38' W 080°03'19 0.8
2017-Nov-30 17:24N 26°19' W 080°05'3 6.6
2017-Nov-30 16:57N 26°16' W 080°05'3 4.4
2017-Nov-30 16:13N 26°13' W 080°06'1 5.5
2017-Nov-30 15:59N 26°11' W 080°06'3 6.5
2017-Nov-30 15:30N 26°08' W 080°07'1 0.7
2017-Nov-30 13:31N 26°07' W 080°06'0 0.0
2017-Nov-30 13:19N 26°07' W 080°06'0 0.0
2017-Nov-30 11:18N 26°07' W 080°06'0 0.0
2017-Nov-30 11:00N 26°07' W 080°06'0 0.0
2017-Nov-30 10:30N 26°07' W 080°06'0 0.0
2017-Nov-30 10:00N 26°07' W 080°06'0 0.0
2017-Nov-30 09:30N 26°07' W 080°06'0 0.0
2017-Nov-30 08:57N 26°07' W 080°06'0 0.0
2017-Nov-30 08:24N 26°07' W 080°06'0 0.0
2017-Nov-30 07:54N 26°07' W 080°06'0 0.0
2017-Nov-30 07:27N 26°07' W 080°06'0 0.0
2017-Nov-30 06:57N 26°07' W 080°06'0 0.0
2017-Nov-30 06:27N 26°07' W 080°06'0 0.0
2017-Nov-30 05:57N 26°07' W 080°06'0 0.0
2017-Nov-30 05:27N 26°07' W 080°06'0 0.0
2017-Nov-30 04:57N 26°07' W 080°06'0 0.0
2017-Nov-30 04:27N 26°07' W 080°06'0 0.0
2017-Nov-30 03:23N 26°07' W 080°06'0 0.0
2017-Nov-30 02:53N 26°07' W 080°06'0 0.0
2017-Nov-30 02:20N 26°07' W 080°06'0 0.0
2017-Nov-30 01:53N 26°07' W 080°06'0 0.0
2017-Nov-30 01:23N 26°07' W 080°06'0 0.0
2017-Nov-30 00:50N 26°07' W 080°06'0 0.0
2017-Nov-30 00:23N 26°07' W 080°06'0 0.0
2017-Nov-29 23:53N 26°07' W 080°06'0 0.0
2017-Nov-29 23:20N 26°07' W 080°06'0 0.0
2017-Nov-29 22:50N 26°07' W 080°06'0 0.0
2017-Nov-29 22:20N 26°07' W 080°06'0 0.0
2017-Nov-29 21:50N 26°07' W 080°06'0 0.0
2017-Nov-29 21:20N 26°07' W 080°06'0 0.0
2017-Nov-29 20:59N 26°07' W 080°06'0 0.0
2017-Nov-29 20:29N 26°07' W 080°06'0 0.0
2017-Nov-29 19:50N 26°07' W 080°06'515.6
2017-Nov-29 19:29N 26°12' W 080°06'510.9
2017-Nov-29 18:59N 26°07' W 080°06'0 0.0
2017-Nov-29 18:29N 26°07' W 080°06'0 0.0
2017-Nov-29 17:55N 26°07' W 080°06'0 0.0
2017-Nov-29 17:28N 26°07' W 080°06'0 0.0
2017-Nov-29 16:55N 26°07' W 080°06'1 2.8
2017-Nov-29 16:25N 26°06' W 080°07'3 5.3
2017-Nov-29 15:56N 26°03' W 080°07'3 6.2
2017-Nov-29 15:26N 25°60' W 080°07'2 5.4
2017-Nov-29 15:00N 25°58' W 080°08'0 0.0
2017-Nov-29 14:18N 25°58' W 080°08'0 0.0
2017-Nov-29 14:00N 25°58' W 080°08'0 0.0
2017-Nov-29 13:30N 25°58' W 080°08'0 0.0
2017-Nov-29 13:00N 25°58' W 080°08'0 0.0
2017-Nov-29 12:30N 25°58' W 080°08'0 0.0
2017-Nov-29 11:51N 25°58' W 080°08'0 0.0
2017-Nov-29 11:21N 25°58' W 080°08'0 0.0
2017-Nov-29 10:54N 25°58' W 080°08'0 0.0
2017-Nov-29 10:24N 25°58' W 080°08'0 0.0
2017-Nov-29 09:54N 25°58' W 080°08'0 0.0
2017-Nov-29 09:24N 25°58' W 080°08'0 0.0
2017-Nov-29 08:54N 25°58' W 080°08'0 0.0
2017-Nov-29 08:24N 25°58' W 080°08'0 0.0
2017-Nov-29 07:54N 25°58' W 080°08'0 0.0
2017-Nov-29 07:27N 25°58' W 080°08'0 0.0
2017-Nov-29 06:59N 25°58' W 080°08'0 0.0
2017-Nov-29 06:29N 25°58' W 080°08'0 0.0
2017-Nov-29 05:44N 25°58' W 080°08'0 0.0
2017-Nov-29 05:17N 25°58' W 080°08'0 0.0
2017-Nov-29 04:59N 25°58' W 080°08'0 0.0
2017-Nov-29 04:14N 25°58' W 080°08'0 0.0
2017-Nov-29 03:59N 25°58' W 080°08'0 0.0
2017-Nov-29 03:29N 25°58' W 080°08'0 0.0
2017-Nov-29 02:50N 25°58' W 080°08'0 0.0
2017-Nov-29 02:20N 25°58' W 080°08'0 0.0
2017-Nov-29 01:50N 25°58' W 080°08'0 0.0
2017-Nov-29 01:23N 25°58' W 080°08'0 0.0
2017-Nov-29 00:50N 25°58' W 080°08'0 0.0
2017-Nov-29 00:23N 25°58' W 080°08'0 0.0
2017-Nov-28 23:53N 25°58' W 080°08'0 0.0
2017-Nov-28 23:23N 25°58' W 080°08'0 0.0
2017-Nov-28 22:56N 25°58' W 080°08'0 0.0
2017-Nov-28 22:26N 25°58' W 080°08'0 0.0
2017-Nov-28 21:56N 25°58' W 080°08'0 0.0
2017-Nov-28 21:26N 25°58' W 080°08'0 0.0
2017-Nov-28 20:56N 25°58' W 080°08'0 0.0
2017-Nov-28 20:23N 25°58' W 080°08'0 0.0
2017-Nov-28 19:56N 25°58' W 080°08'0 0.0
2017-Nov-28 19:29N 25°58' W 080°08'0 0.0
2017-Nov-28 18:56N 25°58' W 080°08'0 0.0
2017-Nov-28 18:29N 25°58' W 080°08'0 0.0
2017-Nov-28 17:59N 25°58' W 080°08'0 0.7
2017-Nov-28 17:26N 25°57' W 080°08'3 6.4
2017-Nov-28 17:00N 25°54' W 080°08'2 3.2
2017-Nov-28 16:31N 25°53' W 080°09'3 6.8
2017-Nov-28 16:00N 25°50' W 080°10'3 2.7
2017-Nov-28 15:00N 25°48' W 080°09'0 0.1
2017-Nov-28 14:31N 25°48' W 080°09'0 0.0
2017-Nov-28 13:58N 25°48' W 080°09'0 0.0
2017-Nov-28 13:31N 25°48' W 080°09'0 0.0
2017-Nov-28 12:58N 25°48' W 080°09'0 0.0
2017-Nov-28 12:28N 25°48' W 080°09'0 0.0
2017-Nov-28 11:58N 25°48' W 080°09'0 0.0
2017-Nov-28 11:28N 25°48' W 080°09'0 0.0
2017-Nov-28 10:55N 25°48' W 080°09'0 0.0
2017-Nov-28 10:28N 25°48' W 080°09'0 0.0
2017-Nov-28 09:55N 25°48' W 080°09'0 0.0
2017-Nov-28 09:28N 25°48' W 080°09'0 0.0
2017-Nov-28 09:01N 25°48' W 080°09'0 0.0
2017-Nov-28 08:31N 25°48' W 080°09'0 0.0
2017-Nov-28 07:49N 25°48' W 080°09'0 0.0
2017-Nov-28 07:31N 25°48' W 080°09'0 0.0
2017-Nov-28 06:58N 25°48' W 080°09'0 0.0
2017-Nov-28 06:31N 25°48' W 080°09'0 0.0
2017-Nov-28 05:55N 25°48' W 080°09'0 0.0
2017-Nov-28 05:25N 25°48' W 080°09'0 0.0
2017-Nov-28 04:31N 25°48' W 080°09'0 0.0
2017-Nov-28 03:58N 25°48' W 080°09'0 0.0
2017-Nov-28 03:28N 25°48' W 080°09'0 0.0
2017-Nov-28 03:00N 25°48' W 080°09'0 0.0
2017-Nov-28 02:30N 25°48' W 080°09'0 0.0
2017-Nov-28 02:00N 25°48' W 080°09'0 0.0
2017-Nov-28 01:30N 25°48' W 080°09'0 0.0
2017-Nov-28 01:00N 25°48' W 080°09'0 0.0
2017-Nov-28 00:30N 25°48' W 080°09'0 0.0
2017-Nov-28 00:00N 25°48' W 080°09'0 0.0
2017-Nov-27 23:27N 25°48' W 080°09'0 0.0
2017-Nov-27 23:00N 25°48' W 080°09'0 0.0
2017-Nov-27 22:30N 25°48' W 080°09'0 0.0
2017-Nov-27 21:57N 25°48' W 080°09'0 0.0
2017-Nov-27 21:30N 25°48' W 080°09'0 0.0
2017-Nov-27 20:58N 25°48' W 080°09'0 0.0
2017-Nov-27 20:31N 25°48' W 080°09'0 0.0
2017-Nov-27 20:01N 25°48' W 080°09'0 0.0
2017-Nov-27 19:31N 25°48' W 080°09'0 0.0
2017-Nov-27 19:01N 25°48' W 080°09'2 4.1
2017-Nov-27 18:30N 25°47' W 080°11'4 8.4
2017-Nov-27 18:00N 25°43' W 080°11'4 7.9
2017-Nov-27 17:29N 25°39' W 080°09'4 8.8
2017-Nov-27 17:00N 25°35' W 080°07'0 0.0
2017-Nov-26 16:10N 25°35' W 080°07'211.2
2017-Nov-26 16:00N 25°37' W 080°07'511.1
2017-Nov-26 15:30N 25°42' W 080°07'4 7.7
2017-Nov-26 15:00N 25°46' W 080°08'0 0.2
2017-Nov-26 14:22N 25°46' W 080°08'0 0.0
2017-Nov-26 13:58N 25°46' W 080°08'0 0.0
2017-Nov-26 13:28N 25°46' W 080°08'0 0.0
2017-Nov-26 12:52N 25°46' W 080°08'0 0.0
2017-Nov-26 12:28N 25°46' W 080°08'0 0.0
2017-Nov-26 11:52N 25°46' W 080°08'0 0.0
2017-Nov-26 11:28N 25°46' W 080°08'0 0.0
2017-Nov-26 10:58N 25°46' W 080°08'0 0.0
2017-Nov-26 10:25N 25°46' W 080°08'0 0.0
2017-Nov-26 09:58N 25°46' W 080°08'0 0.0
2017-Nov-26 09:22N 25°46' W 080°08'0 0.0
2017-Nov-26 08:58N 25°46' W 080°08'0 0.0
2017-Nov-26 08:22N 25°46' W 080°08'0 0.0
2017-Nov-26 07:58N 25°46' W 080°08'0 0.0
2017-Nov-26 07:28N 25°46' W 080°08'0 0.0
2017-Nov-26 06:55N 25°46' W 080°08'0 0.0
2017-Nov-26 06:28N 25°46' W 080°08'0 0.0
2017-Nov-26 05:58N 25°46' W 080°08'0 0.0
2017-Nov-26 05:28N 25°46' W 080°08'0 0.0
2017-Nov-26 04:58N 25°46' W 080°08'0 0.0
2017-Nov-26 04:25N 25°46' W 080°08'0 0.0
2017-Nov-26 03:58N 25°46' W 080°08'0 0.0
2017-Nov-26 03:28N 25°46' W 080°08'0 0.0
2017-Nov-26 02:58N 25°46' W 080°08'0 0.0
2017-Nov-26 02:28N 25°46' W 080°08'0 0.0
2017-Nov-26 01:58N 25°46' W 080°08'0 0.0
2017-Nov-26 01:25N 25°46' W 080°08'0 0.0
2017-Nov-26 00:58N 25°46' W 080°08'0 0.0
2017-Nov-26 00:28N 25°46' W 080°08'0 0.0
2017-Nov-25 23:52N 25°46' W 080°08'0 0.0
2017-Nov-25 23:28N 25°46' W 080°08'0 0.0
2017-Nov-25 22:55N 25°46' W 080°08'0 0.0
2017-Nov-25 22:28N 25°46' W 080°08'0 0.0
2017-Nov-25 21:52N 25°46' W 080°08'0 0.0
2017-Nov-25 21:28N 25°46' W 080°08'0 0.0
2017-Nov-25 20:55N 25°46' W 080°08'1 1.4
2017-Nov-25 20:30N 25°46' W 080°09'3 5.0
2017-Nov-25 20:00N 25°48' W 080°11'4 7.8
2017-Nov-25 19:29N 25°52' W 080°10'3 6.4
2017-Nov-25 18:59N 25°54' W 080°08'4 6.8
2017-Nov-25 18:28N 25°58' W 080°07'3 6.4
2017-Nov-25 18:00N 26°01' W 080°07'2 4.7
2017-Nov-25 17:29N 26°03' W 080°07'2 3.6
2017-Nov-25 17:00N 26°05' W 080°07'3 4.5
2017-Nov-25 16:25N 26°07' W 080°09'1 2.8
2017-Nov-25 16:00N 26°06' W 080°10'1 1.8
2017-Nov-25 15:30N 26°07' W 080°09'2 3.2
2017-Nov-25 14:56N 26°06' W 080°07'0 0.0
2017-Nov-25 11:22N 26°06' W 080°07'0 0.0
2017-Nov-25 10:58N 26°06' W 080°07'0 0.0
2017-Nov-25 10:28N 26°06' W 080°07'0 0.0
2017-Nov-25 09:10N 26°06' W 080°07'0 0.0
2017-Nov-25 08:52N 26°06' W 080°07'0 0.0
2017-Nov-25 08:22N 26°06' W 080°07'0 0.0
2017-Nov-25 07:40N 26°06' W 080°07'0 0.0
2017-Nov-25 07:05N 26°06' W 080°07'0 0.0
2017-Nov-25 05:44N 26°06' W 080°07'0 0.0
2017-Nov-25 05:14N 26°06' W 080°07'0 0.0
2017-Nov-25 04:32N 26°06' W 080°07'0 0.0
2017-Nov-25 04:14N 26°06' W 080°07'0 0.0
2017-Nov-25 03:58N 26°06' W 080°07'0 0.0
2017-Nov-25 03:25N 26°06' W 080°07'0 0.0
2017-Nov-25 02:55N 26°06' W 080°07'0 0.0
2017-Nov-24 23:13N 26°06' W 080°07'0 0.0
2017-Nov-24 19:37N 26°06' W 080°07'0 0.0
2017-Nov-24 18:32N 26°06' W 080°07'0 0.1
2017-Nov-24 18:07N 26°06' W 080°07'0 2.3
2017-Nov-24 17:59N 26°06' W 080°07'2 4.3
2017-Nov-24 17:30N 26°08' W 080°06'3 5.2
2017-Nov-24 16:55N 26°11' W 080°06'3 6.1
2017-Nov-24 16:29N 26°14' W 080°06'2 4.5
2017-Nov-24 15:58N 26°16' W 080°05'3 5.5
2017-Nov-24 15:28N 26°19' W 080°05'2 3.0
2017-Nov-24 14:58N 26°20' W 080°05'0 0.0
2017-Nov-23 19:06N 26°21' W 080°05'15 5.6
2017-Nov-23 16:31N 26°35' W 080°03'0 0.8
2017-Nov-23 16:30N 26°35' W 080°03'  

Dump ship's entire track history